sensor_id;sensor_type;location;lat;lon;timestamp;pressure;altitude;pressure_sealevel;temperature;humidity
19672;BME280;9983;51.114;13.788;2023-03-13T00:02:19;98648.59;;;10.37;100.00
19672;BME280;9983;51.114;13.788;2023-03-13T00:07:19;98661.84;;;10.45;99.92
19672;BME280;9983;51.114;13.788;2023-03-13T00:12:19;98642.44;;;10.43;98.75
19672;BME280;9983;51.114;13.788;2023-03-13T00:17:20;98647.38;;;10.46;99.00
19672;BME280;9983;51.114;13.788;2023-03-13T00:22:20;98639.91;;;10.35;99.26
19672;BME280;9983;51.114;13.788;2023-03-13T00:27:20;98646.13;;;10.42;98.92
19672;BME280;9983;51.114;13.788;2023-03-13T00:32:20;98641.94;;;10.33;100.00
19672;BME280;9983;51.114;13.788;2023-03-13T00:37:21;98640.41;;;10.45;99.51
19672;BME280;9983;51.114;13.788;2023-03-13T00:42:21;98646.34;;;10.69;97.54
19672;BME280;9983;51.114;13.788;2023-03-13T00:47:21;98643.88;;;10.74;96.78
19672;BME280;9983;51.114;13.788;2023-03-13T00:52:22;98642.72;;;10.27;98.49
19672;BME280;9983;51.114;13.788;2023-03-13T00:57:23;98635.41;;;10.42;98.87
19672;BME280;9983;51.114;13.788;2023-03-13T01:02:23;98633.69;;;10.90;94.50
19672;BME280;9983;51.114;13.788;2023-03-13T01:07:24;98634.72;;;10.89;94.36
19672;BME280;9983;51.114;13.788;2023-03-13T01:12:25;98623.06;;;11.10;92.07
19672;BME280;9983;51.114;13.788;2023-03-13T01:17:25;98614.38;;;11.08;91.85
19672;BME280;9983;51.114;13.788;2023-03-13T01:22:25;98606.34;;;11.08;91.09
19672;BME280;9983;51.114;13.788;2023-03-13T01:27:27;98618.84;;;10.88;91.40
19672;BME280;9983;51.114;13.788;2023-03-13T01:32:28;98612.34;;;11.10;90.78
19672;BME280;9983;51.114;13.788;2023-03-13T01:37:28;98599.50;;;10.99;90.32
19672;BME280;9983;51.114;13.788;2023-03-13T01:42:28;98595.16;;;10.63;92.18
19672;BME280;9983;51.114;13.788;2023-03-13T01:47:28;98585.69;;;11.02;89.53
19672;BME280;9983;51.114;13.788;2023-03-13T01:52:29;98601.53;;;10.97;89.38
19672;BME280;9983;51.114;13.788;2023-03-13T01:57:36;98585.97;;;11.20;87.86
19672;BME280;9983;51.114;13.788;2023-03-13T02:02:42;98577.81;;;10.59;89.36
19672;BME280;9983;51.114;13.788;2023-03-13T02:12:52;98573.50;;;10.99;87.08
19672;BME280;9983;51.114;13.788;2023-03-13T02:17:52;98574.06;;;11.29;84.80
19672;BME280;9983;51.114;13.788;2023-03-13T02:23:08;98562.91;;;10.85;86.75
19672;BME280;9983;51.114;13.788;2023-03-13T02:28:28;98547.44;;;10.18;90.63
19672;BME280;9983;51.114;13.788;2023-03-13T02:33:40;98547.00;;;10.77;87.25
19672;BME280;9983;51.114;13.788;2023-03-13T02:38:50;98540.31;;;10.59;88.25
19672;BME280;9983;51.114;13.788;2023-03-13T02:43:52;98544.94;;;10.79;87.08
19672;BME280;9983;51.114;13.788;2023-03-13T02:48:55;98545.13;;;10.71;87.54
19672;BME280;9983;51.114;13.788;2023-03-13T02:53:59;98548.19;;;10.68;88.34
19672;BME280;9983;51.114;13.788;2023-03-13T02:59:00;98550.03;;;11.15;85.67
19672;BME280;9983;51.114;13.788;2023-03-13T03:04:01;98550.31;;;10.79;87.59
19672;BME280;9983;51.114;13.788;2023-03-13T03:09:01;98548.72;;;10.91;87.24
19672;BME280;9983;51.114;13.788;2023-03-13T03:14:01;98545.88;;;10.64;88.49
19672;BME280;9983;51.114;13.788;2023-03-13T03:19:02;98543.34;;;10.91;86.74
19672;BME280;9983;51.114;13.788;2023-03-13T03:24:02;98536.81;;;11.13;86.49
19672;BME280;9983;51.114;13.788;2023-03-13T03:29:03;98533.94;;;11.08;84.89
19672;BME280;9983;51.114;13.788;2023-03-13T03:34:03;98518.88;;;11.14;85.93
19672;BME280;9983;51.114;13.788;2023-03-13T03:39:03;98503.00;;;11.12;85.91
19672;BME280;9983;51.114;13.788;2023-03-13T03:44:04;98497.19;;;11.09;85.66
19672;BME280;9983;51.114;13.788;2023-03-13T03:49:05;98485.06;;;11.19;85.47
19672;BME280;9983;51.114;13.788;2023-03-13T03:54:05;98476.59;;;11.22;84.93
19672;BME280;9983;51.114;13.788;2023-03-13T03:59:05;98469.19;;;11.31;83.98
19672;BME280;9983;51.114;13.788;2023-03-13T04:04:05;98455.13;;;11.09;84.78
19672;BME280;9983;51.114;13.788;2023-03-13T04:09:06;98440.69;;;11.23;84.07
19672;BME280;9983;51.114;13.788;2023-03-13T04:14:06;98446.50;;;11.33;83.44
19672;BME280;9983;51.114;13.788;2023-03-13T04:19:06;98431.00;;;11.22;84.15
19672;BME280;9983;51.114;13.788;2023-03-13T04:24:07;98433.66;;;11.09;84.63
19672;BME280;9983;51.114;13.788;2023-03-13T04:29:07;98428.50;;;11.14;84.06
19672;BME280;9983;51.114;13.788;2023-03-13T04:34:07;98419.66;;;11.27;83.37
19672;BME280;9983;51.114;13.788;2023-03-13T04:39:08;98412.59;;;11.06;85.18
19672;BME280;9983;51.114;13.788;2023-03-13T04:44:08;98397.78;;;11.36;83.69
19672;BME280;9983;51.114;13.788;2023-03-13T04:49:08;98387.88;;;11.30;83.59
19672;BME280;9983;51.114;13.788;2023-03-13T04:54:09;98373.00;;;11.48;82.80
19672;BME280;9983;51.114;13.788;2023-03-13T04:59:11;98368.06;;;11.31;83.43
19672;BME280;9983;51.114;13.788;2023-03-13T05:04:11;98357.31;;;11.31;84.11
19672;BME280;9983;51.114;13.788;2023-03-13T05:09:11;98350.50;;;11.09;85.65
19672;BME280;9983;51.114;13.788;2023-03-13T05:14:12;98335.03;;;11.24;84.70
19672;BME280;9983;51.114;13.788;2023-03-13T05:19:12;98323.91;;;11.27;84.25
19672;BME280;9983;51.114;13.788;2023-03-13T05:24:12;98318.94;;;11.31;84.28
19672;BME280;9983;51.114;13.788;2023-03-13T05:29:12;98305.69;;;11.56;82.98
19672;BME280;9983;51.114;13.788;2023-03-13T05:34:13;98295.84;;;10.84;87.23
19672;BME280;9983;51.114;13.788;2023-03-13T05:39:13;98288.44;;;11.12;86.06
19672;BME280;9983;51.114;13.788;2023-03-13T05:44:13;98275.19;;;11.44;84.98
19672;BME280;9983;51.114;13.788;2023-03-13T05:49:14;98285.47;;;11.47;84.25
19672;BME280;9983;51.114;13.788;2023-03-13T05:54:14;98268.97;;;11.50;84.49
19672;BME280;9983;51.114;13.788;2023-03-13T05:59:15;98258.00;;;11.58;83.52
19672;BME280;9983;51.114;13.788;2023-03-13T06:04:15;98264.00;;;11.47;83.30
19672;BME280;9983;51.114;13.788;2023-03-13T06:09:15;98240.81;;;11.72;82.30
19672;BME280;9983;51.114;13.788;2023-03-13T06:14:15;98245.19;;;11.60;82.63
19672;BME280;9983;51.114;13.788;2023-03-13T06:19:16;98251.19;;;11.62;82.13
19672;BME280;9983;51.114;13.788;2023-03-13T06:24:16;98252.72;;;12.02;80.76
19672;BME280;9983;51.114;13.788;2023-03-13T06:29:17;98230.72;;;12.19;79.68
19672;BME280;9983;51.114;13.788;2023-03-13T06:34:17;98214.97;;;12.22;78.81
19672;BME280;9983;51.114;13.788;2023-03-13T06:39:17;98197.63;;;12.25;78.90
19672;BME280;9983;51.114;13.788;2023-03-13T06:44:18;98192.16;;;12.38;78.21
19672;BME280;9983;51.114;13.788;2023-03-13T06:49:18;98172.81;;;12.23;77.94
19672;BME280;9983;51.114;13.788;2023-03-13T06:54:18;98174.72;;;12.47;76.87
19672;BME280;9983;51.114;13.788;2023-03-13T06:59:18;98166.91;;;12.39;77.36
19672;BME280;9983;51.114;13.788;2023-03-13T07:04:19;98159.75;;;12.58;76.30
19672;BME280;9983;51.114;13.788;2023-03-13T07:09:19;98161.44;;;12.52;76.46
19672;BME280;9983;51.114;13.788;2023-03-13T07:14:20;98165.84;;;12.15;77.34
19672;BME280;9983;51.114;13.788;2023-03-13T07:19:20;98153.50;;;12.07;77.64
19672;BME280;9983;51.114;13.788;2023-03-13T07:24:20;98142.16;;;12.37;78.45
19672;BME280;9983;51.114;13.788;2023-03-13T07:29:21;98127.94;;;11.98;79.53
19672;BME280;9983;51.114;13.788;2023-03-13T07:34:21;98137.91;;;12.47;80.02
19672;BME280;9983;51.114;13.788;2023-03-13T07:39:21;98125.13;;;12.43;85.75
19672;BME280;9983;51.114;13.788;2023-03-13T07:44:22;98117.50;;;12.40;88.22
19672;BME280;9983;51.114;13.788;2023-03-13T07:49:22;98120.66;;;12.30;92.85
19672;BME280;9983;51.114;13.788;2023-03-13T07:54:22;98113.63;;;12.36;94.46
19672;BME280;9983;51.114;13.788;2023-03-13T07:59:22;98102.19;;;12.15;98.23
19672;BME280;9983;51.114;13.788;2023-03-13T08:04:23;98102.09;;;12.29;100.00
19672;BME280;9983;51.114;13.788;2023-03-13T08:09:23;98104.19;;;12.27;100.00
19672;BME280;9983;51.114;13.788;2023-03-13T08:14:23;98103.75;;;12.30;100.00
19672;BME280;9983;51.114;13.788;2023-03-13T08:19:23;98121.00;;;12.15;100.00
19672;BME280;9983;51.114;13.788;2023-03-13T08:24:24;98115.19;;;12.19;100.00
19672;BME280;9983;51.114;13.788;2023-03-13T08:29:24;98117.63;;;11.95;100.00
19672;BME280;9983;51.114;13.788;2023-03-13T08:34:24;98121.25;;;12.07;100.00
19672;BME280;9983;51.114;13.788;2023-03-13T08:39:24;98115.34;;;12.24;100.00
19672;BME280;9983;51.114;13.788;2023-03-13T08:44:25;98116.34;;;12.04;100.00
19672;BME280;9983;51.114;13.788;2023-03-13T08:49:26;98118.63;;;12.01;100.00
19672;BME280;9983;51.114;13.788;2023-03-13T08:54:26;98105.19;;;12.01;100.00
19672;BME280;9983;51.114;13.788;2023-03-13T08:59:26;98096.69;;;11.79;100.00
19672;BME280;9983;51.114;13.788;2023-03-13T09:04:27;98100.28;;;12.23;100.00
19672;BME280;9983;51.114;13.788;2023-03-13T09:09:27;98079.06;;;12.14;100.00
19672;BME280;9983;51.114;13.788;2023-03-13T09:14:27;98084.53;;;12.01;100.00
19672;BME280;9983;51.114;13.788;2023-03-13T09:19:27;98084.00;;;12.18;100.00
19672;BME280;9983;51.114;13.788;2023-03-13T09:24:28;98084.09;;;12.54;100.00
19672;BME280;9983;51.114;13.788;2023-03-13T09:29:28;98089.59;;;12.41;100.00
19672;BME280;9983;51.114;13.788;2023-03-13T09:34:28;98098.47;;;12.41;100.00
19672;BME280;9983;51.114;13.788;2023-03-13T09:39:28;98098.53;;;12.35;100.00
19672;BME280;9983;51.114;13.788;2023-03-13T09:44:36;98091.66;;;12.39;100.00
19672;BME280;9983;51.114;13.788;2023-03-13T09:49:53;98077.19;;;12.40;100.00
19672;BME280;9983;51.114;13.788;2023-03-13T09:55:03;98068.00;;;12.47;100.00
19672;BME280;9983;51.114;13.788;2023-03-13T10:00:15;98066.66;;;12.63;100.00
19672;BME280;9983;51.114;13.788;2023-03-13T10:05:23;98046.94;;;12.87;100.00
19672;BME280;9983;51.114;13.788;2023-03-13T10:10:36;98048.91;;;13.17;100.00
19672;BME280;9983;51.114;13.788;2023-03-13T10:15:45;98039.03;;;13.29;100.00
19672;BME280;9983;51.114;13.788;2023-03-13T10:20:50;98029.84;;;13.48;100.00
19672;BME280;9983;51.114;13.788;2023-03-13T10:25:52;98038.06;;;13.53;100.00
19672;BME280;9983;51.114;13.788;2023-03-13T10:30:57;98029.50;;;13.56;100.00
19672;BME280;9983;51.114;13.788;2023-03-13T10:36:08;98017.69;;;13.99;100.00
19672;BME280;9983;51.114;13.788;2023-03-13T10:41:19;98011.16;;;14.18;100.00
19672;BME280;9983;51.114;13.788;2023-03-13T10:46:28;98008.84;;;14.45;100.00
19672;BME280;9983;51.114;13.788;2023-03-13T10:51:37;98008.81;;;14.10;100.00
19672;BME280;9983;51.114;13.788;2023-03-13T10:56:37;98010.19;;;14.01;100.00
19672;BME280;9983;51.114;13.788;2023-03-13T11:01:41;98014.19;;;14.10;100.00
19672;BME280;9983;51.114;13.788;2023-03-13T11:06:41;98037.03;;;13.96;100.00
19672;BME280;9983;51.114;13.788;2023-03-13T11:11:50;98034.00;;;14.04;100.00
19672;BME280;9983;51.114;13.788;2023-03-13T11:22:26;98030.63;;;14.20;100.00
19672;BME280;9983;51.114;13.788;2023-03-13T11:33:36;98036.03;;;14.67;100.00
19672;BME280;9983;51.114;13.788;2023-03-13T11:38:40;98040.72;;;14.36;100.00
19672;BME280;9983;51.114;13.788;2023-03-13T11:59:44;98015.66;;;14.48;100.00
19672;BME280;9983;51.114;13.788;2023-03-13T12:04:58;98002.25;;;14.29;100.00
19672;BME280;9983;51.114;13.788;2023-03-13T12:10:11;97991.69;;;14.16;100.00
19672;BME280;9983;51.114;13.788;2023-03-13T12:15:29;97973.91;;;14.62;100.00
19672;BME280;9983;51.114;13.788;2023-03-13T12:20:41;97968.97;;;14.59;100.00
19672;BME280;9983;51.114;13.788;2023-03-13T12:25:53;97943.41;;;14.50;100.00
19672;BME280;9983;51.114;13.788;2023-03-13T12:31:00;97909.66;;;15.15;100.00
19672;BME280;9983;51.114;13.788;2023-03-13T12:41:30;97920.25;;;15.96;95.87
19672;BME280;9983;51.114;13.788;2023-03-13T12:46:35;97905.28;;;15.71;96.19
19672;BME280;9983;51.114;13.788;2023-03-13T12:57:20;97902.81;;;16.25;90.95
19672;BME280;9983;51.114;13.788;2023-03-13T13:02:27;97912.78;;;16.03;88.87
19672;BME280;9983;51.114;13.788;2023-03-13T13:07:33;97917.78;;;16.11;86.17
19672;BME280;9983;51.114;13.788;2023-03-13T13:12:35;97924.75;;;16.07;86.64
19672;BME280;9983;51.114;13.788;2023-03-13T13:17:46;97924.13;;;16.38;84.37
19672;BME280;9983;51.114;13.788;2023-03-13T13:22:48;97913.78;;;16.35;83.79
19672;BME280;9983;51.114;13.788;2023-03-13T13:27:49;97911.56;;;16.32;84.07
19672;BME280;9983;51.114;13.788;2023-03-13T13:32:53;97897.03;;;16.55;80.55
19672;BME280;9983;51.114;13.788;2023-03-13T13:43:21;97834.00;;;17.03;78.39
19672;BME280;9983;51.114;13.788;2023-03-13T13:53:31;97892.56;;;16.65;79.74
19672;BME280;9983;51.114;13.788;2023-03-13T13:58:42;97891.69;;;16.82;79.60
19672;BME280;9983;51.114;13.788;2023-03-13T14:03:44;97912.03;;;16.62;80.08
19672;BME280;9983;51.114;13.788;2023-03-13T14:08:47;97902.53;;;16.82;79.51
19672;BME280;9983;51.114;13.788;2023-03-13T14:14:17;97926.38;;;16.46;81.42
19672;BME280;9983;51.114;13.788;2023-03-13T14:19:24;97915.28;;;16.26;82.26
19672;BME280;9983;51.114;13.788;2023-03-13T14:24:24;97898.22;;;16.86;80.50
19672;BME280;9983;51.114;13.788;2023-03-13T14:29:25;97862.06;;;16.70;79.96
19672;BME280;9983;51.114;13.788;2023-03-13T14:34:26;97865.50;;;16.65;80.75
19672;BME280;9983;51.114;13.788;2023-03-13T14:39:42;97845.31;;;16.73;78.88
19672;BME280;9983;51.114;13.788;2023-03-13T14:44:48;97873.81;;;16.81;77.92
19672;BME280;9983;51.114;13.788;2023-03-13T14:49:57;97849.50;;;16.86;78.29
19672;BME280;9983;51.114;13.788;2023-03-13T14:55:03;97851.53;;;17.27;76.14
19672;BME280;9983;51.114;13.788;2023-03-13T15:00:28;97850.72;;;17.27;75.66
19672;BME280;9983;51.114;13.788;2023-03-13T15:05:31;97850.09;;;17.47;74.93
19672;BME280;9983;51.114;13.788;2023-03-13T15:10:34;97829.31;;;17.57;74.34
19672;BME280;9983;51.114;13.788;2023-03-13T15:15:35;97826.28;;;17.49;73.89
19672;BME280;9983;51.114;13.788;2023-03-13T15:20:36;97816.81;;;17.19;75.22
19672;BME280;9983;51.114;13.788;2023-03-13T15:25:36;97818.56;;;16.77;77.27
19672;BME280;9983;51.114;13.788;2023-03-13T15:30:36;97804.78;;;17.05;75.32
19672;BME280;9983;51.114;13.788;2023-03-13T15:35:36;97796.97;;;17.40;74.28
19672;BME280;9983;51.114;13.788;2023-03-13T15:40:37;97790.56;;;17.57;73.26
19672;BME280;9983;51.114;13.788;2023-03-13T15:45:40;97797.88;;;17.24;74.42
19672;BME280;9983;51.114;13.788;2023-03-13T15:50:41;97778.63;;;17.53;72.88
19672;BME280;9983;51.114;13.788;2023-03-13T15:55:42;97780.41;;;17.74;71.56
19672;BME280;9983;51.114;13.788;2023-03-13T16:00:43;97744.16;;;17.85;70.52
19672;BME280;9983;51.114;13.788;2023-03-13T16:05:45;97743.88;;;18.49;67.95
19672;BME280;9983;51.114;13.788;2023-03-13T16:10:45;97755.16;;;18.26;67.79
19672;BME280;9983;51.114;13.788;2023-03-13T16:15:46;97739.47;;;18.33;67.49
19672;BME280;9983;51.114;13.788;2023-03-13T16:20:48;97723.97;;;17.66;68.43
19672;BME280;9983;51.114;13.788;2023-03-13T16:25:49;97700.72;;;17.75;69.82
19672;BME280;9983;51.114;13.788;2023-03-13T16:30:49;97703.47;;;17.80;69.13
19672;BME280;9983;51.114;13.788;2023-03-13T16:35:50;97704.53;;;17.74;71.11
19672;BME280;9983;51.114;13.788;2023-03-13T16:40:53;97689.88;;;17.70;70.27
19672;BME280;9983;51.114;13.788;2023-03-13T16:45:53;97691.91;;;17.53;70.72
19672;BME280;9983;51.114;13.788;2023-03-13T16:50:54;97686.38;;;17.32;70.92
19672;BME280;9983;51.114;13.788;2023-03-13T16:55:54;97679.44;;;17.52;70.64
19672;BME280;9983;51.114;13.788;2023-03-13T17:00:54;97666.88;;;17.30;71.63
19672;BME280;9983;51.114;13.788;2023-03-13T17:05:55;97656.03;;;17.30;71.68
19672;BME280;9983;51.114;13.788;2023-03-13T17:10:55;97655.09;;;17.57;70.18
19672;BME280;9983;51.114;13.788;2023-03-13T17:15:55;97664.19;;;17.35;71.54
19672;BME280;9983;51.114;13.788;2023-03-13T17:20:55;97672.28;;;17.30;71.46
19672;BME280;9983;51.114;13.788;2023-03-13T17:25:56;97660.34;;;17.26;71.69
19672;BME280;9983;51.114;13.788;2023-03-13T17:30:56;97659.44;;;17.16;72.21
19672;BME280;9983;51.114;13.788;2023-03-13T17:35:57;97666.06;;;16.93;72.93
19672;BME280;9983;51.114;13.788;2023-03-13T17:40:57;97659.56;;;16.89;73.85
19672;BME280;9983;51.114;13.788;2023-03-13T17:45:57;97646.78;;;16.84;73.62
19672;BME280;9983;51.114;13.788;2023-03-13T17:50:57;97642.19;;;16.85;73.53
19672;BME280;9983;51.114;13.788;2023-03-13T17:55:57;97653.97;;;16.68;73.88
19672;BME280;9983;51.114;13.788;2023-03-13T18:00:58;97654.88;;;16.52;74.42
19672;BME280;9983;51.114;13.788;2023-03-13T18:05:58;97644.06;;;16.52;74.13
19672;BME280;9983;51.114;13.788;2023-03-13T18:10:58;97634.44;;;16.61;73.88
19672;BME280;9983;51.114;13.788;2023-03-13T18:15:59;97642.34;;;16.41;74.45
19672;BME280;9983;51.114;13.788;2023-03-13T18:20:59;97625.81;;;16.38;74.27
19672;BME280;9983;51.114;13.788;2023-03-13T18:25:59;97619.72;;;16.52;73.89
19672;BME280;9983;51.114;13.788;2023-03-13T18:31:00;97626.09;;;16.41;73.82
19672;BME280;9983;51.114;13.788;2023-03-13T18:36:00;97605.91;;;16.81;72.19
19672;BME280;9983;51.114;13.788;2023-03-13T18:41:00;97606.78;;;16.59;73.17
19672;BME280;9983;51.114;13.788;2023-03-13T18:46:01;97597.50;;;16.50;74.02
19672;BME280;9983;51.114;13.788;2023-03-13T18:51:01;97582.84;;;16.41;74.59
19672;BME280;9983;51.114;13.788;2023-03-13T18:56:21;97588.88;;;16.48;74.77
19672;BME280;9983;51.114;13.788;2023-03-13T19:01:24;97592.94;;;16.51;74.83
19672;BME280;9983;51.114;13.788;2023-03-13T19:06:27;97589.53;;;16.65;75.17
19672;BME280;9983;51.114;13.788;2023-03-13T19:11:30;97600.00;;;16.89;73.21
19672;BME280;9983;51.114;13.788;2023-03-13T19:16:47;97604.69;;;16.61;74.12
19672;BME280;9983;51.114;13.788;2023-03-13T19:21:50;97594.81;;;16.82;73.25
19672;BME280;9983;51.114;13.788;2023-03-13T19:26:51;97620.47;;;16.75;73.63
19672;BME280;9983;51.114;13.788;2023-03-13T19:31:57;97666.66;;;16.41;80.10
19672;BME280;9983;51.114;13.788;2023-03-13T19:37:03;97835.56;;;14.50;100.00
19672;BME280;9983;51.114;13.788;2023-03-13T19:42:04;97780.19;;;13.79;100.00
19672;BME280;9983;51.114;13.788;2023-03-13T19:47:11;97742.78;;;14.05;100.00
19672;BME280;9983;51.114;13.788;2023-03-13T19:52:12;97733.38;;;14.36;100.00
19672;BME280;9983;51.114;13.788;2023-03-13T19:57:13;97705.00;;;14.46;100.00
19672;BME280;9983;51.114;13.788;2023-03-13T20:02:13;97686.41;;;14.61;100.00
19672;BME280;9983;51.114;13.788;2023-03-13T20:07:13;97669.56;;;14.54;100.00
19672;BME280;9983;51.114;13.788;2023-03-13T20:12:13;97644.53;;;14.41;100.00
19672;BME280;9983;51.114;13.788;2023-03-13T20:17:13;97639.44;;;14.28;100.00
19672;BME280;9983;51.114;13.788;2023-03-13T20:22:14;97652.81;;;14.23;100.00
19672;BME280;9983;51.114;13.788;2023-03-13T20:27:15;97639.25;;;13.61;100.00
19672;BME280;9983;51.114;13.788;2023-03-13T20:32:15;97631.13;;;13.73;100.00
19672;BME280;9983;51.114;13.788;2023-03-13T20:37:15;97615.13;;;13.66;100.00
19672;BME280;9983;51.114;13.788;2023-03-13T20:42:15;97573.72;;;13.56;100.00
19672;BME280;9983;51.114;13.788;2023-03-13T20:47:16;97541.47;;;13.44;100.00
19672;BME280;9983;51.114;13.788;2023-03-13T20:52:16;97530.78;;;13.21;100.00
19672;BME280;9983;51.114;13.788;2023-03-13T20:57:16;97547.44;;;13.46;100.00
19672;BME280;9983;51.114;13.788;2023-03-13T21:02:18;97546.38;;;13.47;100.00
19672;BME280;9983;51.114;13.788;2023-03-13T21:07:19;97535.63;;;13.47;100.00
19672;BME280;9983;51.114;13.788;2023-03-13T21:12:19;97541.66;;;13.54;100.00
19672;BME280;9983;51.114;13.788;2023-03-13T21:17:20;97512.59;;;13.56;100.00
19672;BME280;9983;51.114;13.788;2023-03-13T21:22:20;97522.09;;;13.59;100.00
19672;BME280;9983;51.114;13.788;2023-03-13T21:27:22;97523.00;;;13.36;100.00
19672;BME280;9983;51.114;13.788;2023-03-13T21:32:23;97527.28;;;13.49;100.00
19672;BME280;9983;51.114;13.788;2023-03-13T21:37:23;97509.94;;;13.28;100.00
19672;BME280;9983;51.114;13.788;2023-03-13T21:42:23;97501.13;;;13.33;100.00
19672;BME280;9983;51.114;13.788;2023-03-13T21:47:24;97486.47;;;13.40;100.00
19672;BME280;9983;51.114;13.788;2023-03-13T21:52:24;97493.50;;;13.41;100.00
19672;BME280;9983;51.114;13.788;2023-03-13T21:57:25;97491.38;;;13.88;100.00
19672;BME280;9983;51.114;13.788;2023-03-13T22:02:25;97504.53;;;13.56;100.00
19672;BME280;9983;51.114;13.788;2023-03-13T22:07:25;97507.78;;;13.87;100.00
19672;BME280;9983;51.114;13.788;2023-03-13T22:12:25;97516.72;;;13.76;100.00
19672;BME280;9983;51.114;13.788;2023-03-13T22:17:26;97532.50;;;13.27;100.00
19672;BME280;9983;51.114;13.788;2023-03-13T22:22:26;97531.25;;;13.75;100.00
19672;BME280;9983;51.114;13.788;2023-03-13T22:27:26;97541.56;;;13.78;100.00
19672;BME280;9983;51.114;13.788;2023-03-13T22:32:26;97568.28;;;13.67;100.00
19672;BME280;9983;51.114;13.788;2023-03-13T22:37:27;97564.16;;;12.97;100.00
19672;BME280;9983;51.114;13.788;2023-03-13T22:42:27;97577.72;;;13.53;100.00
19672;BME280;9983;51.114;13.788;2023-03-13T22:47:27;97575.13;;;12.95;100.00
19672;BME280;9983;51.114;13.788;2023-03-13T22:52:27;97582.88;;;13.43;100.00
19672;BME280;9983;51.114;13.788;2023-03-13T22:57:30;97582.59;;;13.56;100.00
19672;BME280;9983;51.114;13.788;2023-03-13T23:02:30;97575.97;;;12.96;100.00
19672;BME280;9983;51.114;13.788;2023-03-13T23:07:30;97582.31;;;13.41;100.00
19672;BME280;9983;51.114;13.788;2023-03-13T23:12:31;97563.53;;;13.18;100.00
19672;BME280;9983;51.114;13.788;2023-03-13T23:17:33;97564.72;;;13.50;100.00
19672;BME280;9983;51.114;13.788;2023-03-13T23:22:33;97553.66;;;13.35;100.00
19672;BME280;9983;51.114;13.788;2023-03-13T23:27:34;97538.81;;;13.33;100.00
19672;BME280;9983;51.114;13.788;2023-03-13T23:32:35;97528.00;;;13.44;100.00
19672;BME280;9983;51.114;13.788;2023-03-13T23:37:36;97477.66;;;13.28;100.00
19672;BME280;9983;51.114;13.788;2023-03-13T23:42:36;97362.66;;;13.23;100.00
19672;BME280;9983;51.114;13.788;2023-03-13T23:47:37;97344.22;;;13.15;100.00
19672;BME280;9983;51.114;13.788;2023-03-13T23:52:37;97342.28;;;13.27;100.00
19672;BME280;9983;51.114;13.788;2023-03-13T23:57:37;97340.53;;;13.05;100.00
